Time;durP1;ratioP1;P1;durP2;ratioP2;P2;SDS_P1;SDS_P2;PMS_P1;PMS_P2;Temp;Humidity;BMP_temperature;BMP_pressure;BME280_temperature;BME280_humidity;BME280_pressure;Samples;Min_cycle;Max_cycle;Signal;HPM_P1;HPM_P2
2022/04/07 00:01:08;;;;;;;40.47;18.52;;;9.80;99.90;;;;;;5031918;28;20092;-58
2022/04/07 00:03:34;;;;;;;8.48;5.30;;;9.70;99.90;;;;;;5032007;28;20351;-57
2022/04/07 00:06:00;;;;;;;4.78;3.72;;;9.70;99.90;;;;;;5031729;28;20108;-58
2022/04/07 00:08:26;;;;;;;15.90;5.95;;;9.70;99.90;;;;;;5031929;28;20136;-58
2022/04/07 00:10:52;;;;;;;8.88;4.82;;;9.60;99.90;;;;;;5031739;28;20029;-59
2022/04/07 00:13:18;;;;;;;29.08;12.00;;;9.60;99.90;;;;;;5031654;28;20029;-58
2022/04/07 00:15:44;;;;;;;25.70;12.93;;;9.60;99.90;;;;;;5031863;28;20404;-57
2022/04/07 00:18:09;;;;;;;6.43;3.55;;;9.60;99.90;;;;;;5031632;28;20026;-59
2022/04/07 00:20:35;;;;;;;4.38;3.55;;;9.70;99.90;;;;;;5031777;28;20087;-58
2022/04/07 00:23:03;;;;;;;7.22;3.80;;;9.60;99.90;;;;;;5031514;28;20057;-57
2022/04/07 00:25:30;;;;;;;9.90;5.22;;;9.60;99.90;;;;;;5031862;28;20039;-58
2022/04/07 00:27:55;;;;;;;15.32;6.88;;;9.60;99.90;;;;;;5031465;28;20456;-58
2022/04/07 00:30:22;;;;;;;23.73;12.90;;;9.60;99.90;;;;;;5031513;28;20121;-57
2022/04/07 00:32:49;;;;;;;17.25;8.02;;;9.70;99.90;;;;;;5031672;28;20030;-58
2022/04/07 00:35:16;;;;;;;13.85;6.60;;;9.70;99.90;;;;;;5031256;28;20037;-58
2022/04/07 00:37:42;;;;;;;37.80;14.60;;;9.80;99.90;;;;;;5031521;28;20036;-57
2022/04/07 00:40:10;;;;;;;42.85;17.08;;;9.80;99.90;;;;;;5031466;28;20667;-57
2022/04/07 00:42:50;;;;;;;2.95;2.70;;;9.80;99.90;;;;;;5031402;28;20083;-58
2022/04/07 00:45:19;;;;;;;37.58;12.98;;;9.90;99.90;;;;;;5033993;28;20488;-58
2022/04/07 00:47:46;;;;;;;4.60;3.17;;;9.80;99.90;;;;;;5035579;28;20484;-57
2022/04/07 00:50:14;;;;;;;12.35;5.82;;;9.90;99.90;;;;;;5035534;28;20535;-58
2022/04/07 00:52:50;;;;;;;3.13;2.83;;;9.90;99.90;;;;;;5035465;28;20025;-56
2022/04/07 00:55:18;;;;;;;3.65;3.00;;;9.90;99.90;;;;;;5035358;28;20074;-58
2022/04/07 00:57:45;;;;;;;1.95;1.85;;;9.80;99.90;;;;;;5035426;28;20036;-56
2022/04/07 01:00:13;;;;;;;20.48;8.15;;;9.80;99.90;;;;;;5035095;28;20030;-57
2022/04/07 01:02:38;;;;;;;2.53;2.30;;;9.80;99.90;;;;;;5035302;28;20017;-58
2022/04/07 01:05:05;;;;;;;2.55;2.08;;;9.80;99.90;;;;;;5035293;28;20048;-58
2022/04/07 01:07:36;;;;;;;2.60;2.40;;;9.80;99.90;;;;;;5035109;28;20030;-55
2022/04/07 01:10:03;;;;;;;6.88;3.80;;;9.80;99.90;;;;;;5035157;28;20025;-58
2022/04/07 01:12:28;;;;;;;7.47;4.53;;;9.80;99.90;;;;;;5035168;28;20036;-58
2022/04/07 01:14:56;;;;;;;2.08;1.98;;;9.80;99.90;;;;;;5034656;28;20045;-56
2022/04/07 01:17:22;;;;;;;2.22;1.98;;;9.80;99.90;;;;;;5035046;28;20040;-56
2022/04/07 01:19:48;;;;;;;2.38;2.17;;;9.80;99.90;;;;;;5035012;28;20017;-55
2022/04/07 01:22:14;;;;;;;21.88;8.70;;;9.80;99.90;;;;;;5034839;28;20033;-58
2022/04/07 01:24:40;;;;;;;34.75;12.65;;;9.70;99.90;;;;;;5035008;28;20088;-57
2022/04/07 01:27:06;;;;;;;2.50;2.30;;;9.70;99.90;;;;;;5034680;28;20477;-57
2022/04/07 01:29:31;;;;;;;22.95;9.48;;;9.70;99.90;;;;;;5034781;28;20064;-58
2022/04/07 01:32:05;;;;;;;4.40;3.10;;;9.70;99.90;;;;;;5034666;28;20033;-58
2022/04/07 01:34:31;;;;;;;2.60;2.40;;;9.70;99.90;;;;;;5034807;28;20021;-58
2022/04/07 01:36:57;;;;;;;3.38;2.83;;;9.70;99.90;;;;;;5034413;28;20030;-57
2022/04/07 01:39:26;;;;;;;2.47;2.28;;;9.70;99.90;;;;;;5034644;28;20104;-58
2022/04/07 01:41:53;;;;;;;17.23;7.07;;;9.80;99.90;;;;;;5034502;28;20476;-58
2022/04/07 01:44:20;;;;;;;4.53;3.17;;;9.60;99.90;;;;;;5034597;28;20353;-55
2022/04/07 01:46:47;;;;;;;8.73;4.93;;;9.60;99.90;;;;;;5034604;28;20030;-58
2022/04/07 01:49:14;;;;;;;49.83;17.25;;;9.60;99.90;;;;;;5034251;28;20026;-56
2022/04/07 01:51:42;;;;;;;12.48;5.43;;;9.50;99.90;;;;;;5034247;28;20026;-58
2022/04/07 01:54:11;;;;;;;32.03;12.20;;;9.50;99.90;;;;;;5034091;28;20397;-58
2022/04/07 01:56:39;;;;;;;8.73;4.75;;;9.40;99.90;;;;;;5033353;28;20362;-57
2022/04/07 01:59:08;;;;;;;3.90;3.58;;;9.50;99.90;;;;;;5034321;28;20349;-55
2022/04/07 02:01:34;;;;;;;49.22;16.05;;;9.50;99.90;;;;;;5034262;28;20052;-58
2022/04/07 02:03:59;;;;;;;5.25;3.70;;;9.50;99.90;;;;;;5032809;28;20089;-58
2022/04/07 02:06:26;;;;;;;3.55;3.25;;;9.50;99.90;;;;;;5034048;28;20041;-58
2022/04/07 02:08:51;;;;;;;20.63;7.63;;;9.60;99.90;;;;;;5033893;28;20033;-55
2022/04/07 02:11:17;;;;;;;15.98;6.80;;;9.50;99.90;;;;;;5034024;28;20105;-57
2022/04/07 02:13:43;;;;;;;6.70;4.38;;;9.50;99.90;;;;;;5032577;28;20583;-57
2022/04/07 02:16:10;;;;;;;9.63;5.63;;;9.40;99.90;;;;;;5032608;28;20030;-57
2022/04/07 02:18:36;;;;;;;3.75;3.45;;;9.40;99.90;;;;;;5032569;28;20021;-58
2022/04/07 02:21:02;;;;;;;2.85;2.65;;;9.50;99.90;;;;;;5032350;28;20029;-52
2022/04/07 02:23:28;;;;;;;2.83;2.55;;;9.40;99.90;;;;;;5033085;28;20032;-58
2022/04/07 02:25:54;;;;;;;4.03;3.30;;;9.40;99.90;;;;;;5033350;28;20112;-56
2022/04/07 02:28:20;;;;;;;3.40;3.10;;;9.40;99.90;;;;;;5032630;28;20065;-57
2022/04/07 02:30:47;;;;;;;3.85;3.28;;;9.30;99.90;;;;;;5032776;28;20033;-58
2022/04/07 02:33:12;;;;;;;4.70;3.67;;;9.30;99.90;;;;;;5032527;28;20036;-56
2022/04/07 02:35:38;;;;;;;101.88;65.38;;;9.40;99.90;;;;;;5032958;28;20029;-56
2022/04/07 02:38:05;;;;;;;6.90;6.10;;;9.30;99.90;;;;;;5033418;28;20101;-58
2022/04/07 02:40:30;;;;;;;3.63;3.33;;;9.30;99.90;;;;;;5033406;28;20369;-58
2022/04/07 02:42:56;;;;;;;9.55;4.68;;;9.30;99.90;;;;;;5033551;28;20026;-58
2022/04/07 02:45:22;;;;;;;6.45;3.75;;;9.30;99.90;;;;;;5033528;28;20045;-53
2022/04/07 02:47:47;;;;;;;4.32;3.92;;;9.30;99.90;;;;;;5033332;28;20021;-53
2022/04/07 02:50:14;;;;;;;9.15;6.15;;;9.30;99.90;;;;;;5033406;28;20029;-59
2022/04/07 02:52:39;;;;;;;6.65;3.78;;;9.30;99.90;;;;;;5033219;28;20022;-58
2022/04/07 02:55:06;;;;;;;3.92;3.60;;;9.30;99.90;;;;;;5033154;28;20116;-55
2022/04/07 02:57:31;;;;;;;3.15;2.85;;;9.30;99.90;;;;;;5033177;28;20431;-58
2022/04/07 03:00:00;;;;;;;2.70;2.50;;;9.40;99.90;;;;;;5033113;28;20029;-55
2022/04/07 03:02:27;;;;;;;3.63;3.33;;;9.40;99.90;;;;;;5033035;28;20040;-56
2022/04/07 03:04:53;;;;;;;3.30;3.00;;;9.40;99.90;;;;;;5032864;28;20057;-58
2022/04/07 03:07:19;;;;;;;2.80;2.60;;;9.40;99.90;;;;;;5032696;28;20064;-58
2022/04/07 03:09:45;;;;;;;4.35;3.05;;;9.40;99.90;;;;;;5032993;28;20032;-58
2022/04/07 03:12:13;;;;;;;8.38;3.25;;;9.40;99.90;;;;;;5032738;28;20389;-57
2022/04/07 03:14:39;;;;;;;3.28;2.97;;;9.30;99.90;;;;;;5032757;28;20648;-58
2022/04/07 03:17:05;;;;;;;3.20;2.78;;;9.30;99.90;;;;;;5032544;28;20033;-57
2022/04/07 03:19:31;;;;;;;3.35;3.08;;;9.30;99.90;;;;;;5032818;28;20492;-58
2022/04/07 03:21:57;;;;;;;4.45;3.33;;;9.20;99.90;;;;;;5032474;28;20469;-57
2022/04/07 03:24:24;;;;;;;3.15;2.85;;;9.20;99.90;;;;;;5032749;28;20108;-58
2022/04/07 03:26:50;;;;;;;3.85;3.00;;;9.20;99.90;;;;;;5032780;28;20422;-55
2022/04/07 03:29:19;;;;;;;4.22;2.80;;;9.30;99.90;;;;;;5032505;28;20025;-56
2022/04/07 03:31:44;;;;;;;3.42;3.13;;;9.30;99.90;;;;;;5032390;28;20022;-57
2022/04/07 03:34:10;;;;;;;19.00;8.75;;;9.30;99.90;;;;;;5032318;28;20033;-58
2022/04/07 03:36:36;;;;;;;13.38;8.55;;;9.30;99.90;;;;;;5032346;28;20053;-55
2022/04/07 03:39:02;;;;;;;3.75;3.45;;;9.20;99.90;;;;;;5032305;28;20026;-57
2022/04/07 03:41:28;;;;;;;4.30;2.80;;;9.20;99.90;;;;;;5032345;28;20037;-56
2022/04/07 03:43:57;;;;;;;3.15;2.90;;;9.30;99.90;;;;;;5032149;28;20053;-58
2022/04/07 03:46:23;;;;;;;3.50;3.00;;;9.30;99.90;;;;;;5032146;28;20033;-57
2022/04/07 03:48:49;;;;;;;3.95;3.40;;;9.30;99.90;;;;;;5032016;28;20116;-58
2022/04/07 03:51:18;;;;;;;27.73;11.90;;;9.30;99.90;;;;;;5031970;28;20116;-57
2022/04/07 03:53:44;;;;;;;4.20;3.80;;;9.30;99.90;;;;;;5032128;28;20235;-58
2022/04/07 03:56:10;;;;;;;3.40;3.10;;;9.30;99.90;;;;;;5031821;28;20138;-57
2022/04/07 03:58:37;;;;;;;7.60;3.38;;;9.40;99.90;;;;;;5032051;28;20026;-58
2022/04/07 04:01:03;;;;;;;6.63;3.20;;;9.40;99.90;;;;;;5031361;28;20025;-57
2022/04/07 04:03:29;;;;;;;5.15;3.40;;;9.40;99.90;;;;;;5031832;28;20492;-58
2022/04/07 04:05:54;;;;;;;3.10;2.90;;;9.40;99.90;;;;;;5031476;28;20025;-57
2022/04/07 04:08:20;;;;;;;17.08;7.53;;;9.40;99.90;;;;;;5031929;28;20465;-59
2022/04/07 04:10:46;;;;;;;71.53;29.42;;;9.30;99.90;;;;;;5031633;28;20362;-59
2022/04/07 04:13:12;;;;;;;103.80;40.28;;;9.30;99.90;;;;;;5031600;28;20037;-56
2022/04/07 04:15:37;;;;;;;9.15;5.07;;;9.20;99.90;;;;;;5031201;28;20104;-58
2022/04/07 04:18:03;;;;;;;3.72;3.33;;;9.20;99.90;;;;;;5030849;28;20026;-59
2022/04/07 04:20:29;;;;;;;72.20;28.88;;;9.30;99.90;;;;;;5030314;28;20031;-58
2022/04/07 04:22:54;;;;;;;5.40;4.88;;;9.30;99.90;;;;;;5031609;28;20637;-58
2022/04/07 04:25:21;;;;;;;63.65;25.83;;;9.30;99.90;;;;;;5031447;28;20037;-59
2022/04/07 04:27:47;;;;;;;142.30;47.55;;;9.20;99.90;;;;;;5031421;28;20105;-58
2022/04/07 04:30:16;;;;;;;28.20;12.02;;;9.20;99.90;;;;;;5029803;28;20124;-58
2022/04/07 04:32:43;;;;;;;189.20;53.10;;;9.20;99.90;;;;;;5031332;28;20020;-59
2022/04/07 04:35:10;;;;;;;12.10;5.93;;;9.20;99.90;;;;;;5031365;28;20025;-56
2022/04/07 04:37:36;;;;;;;3.53;2.90;;;9.20;99.90;;;;;;5031334;28;20027;-58
2022/04/07 04:40:02;;;;;;;147.45;40.90;;;9.40;99.90;;;;;;5031347;28;20435;-58
2022/04/07 04:42:28;;;;;;;194.77;56.47;;;9.30;99.90;;;;;;5031273;28;20461;-59
2022/04/07 04:44:54;;;;;;;11.63;7.18;;;9.30;99.90;;;;;;5029766;28;20036;-59
2022/04/07 04:47:19;;;;;;;8.38;4.60;;;9.40;99.90;;;;;;5031324;28;20041;-56
2022/04/07 04:49:45;;;;;;;4.82;3.85;;;9.40;99.90;;;;;;5030048;28;20065;-56
2022/04/07 04:52:11;;;;;;;6.25;4.80;;;9.40;99.90;;;;;;5031313;28;20033;-59
2022/04/07 04:54:37;;;;;;;3.45;3.10;;;9.50;99.90;;;;;;5031188;28;20480;-58
2022/04/07 04:57:04;;;;;;;4.50;4.10;;;9.50;99.90;;;;;;5029702;28;20499;-58
2022/04/07 04:59:30;;;;;;;3.05;2.75;;;9.50;99.90;;;;;;5031287;28;20078;-59
2022/04/07 05:01:56;;;;;;;3.47;2.90;;;9.50;99.90;;;;;;5031048;28;20073;-58
2022/04/07 05:04:21;;;;;;;6.05;3.35;;;9.50;99.90;;;;;;5031457;28;20654;-57
2022/04/07 05:06:47;;;;;;;3.63;3.08;;;9.50;99.90;;;;;;5030339;28;20048;-58
2022/04/07 05:09:13;;;;;;;5.47;2.88;;;9.50;99.90;;;;;;5030985;28;20390;-59
2022/04/07 05:11:39;;;;;;;7.90;3.65;;;9.60;99.90;;;;;;5031160;28;20030;-58
2022/04/07 05:14:05;;;;;;;7.97;3.03;;;9.50;99.90;;;;;;5030738;28;20053;-58
2022/04/07 05:16:30;;;;;;;5.18;3.10;;;9.60;99.90;;;;;;5030967;28;20477;-56
2022/04/07 05:18:56;;;;;;;3.40;3.10;;;9.60;99.90;;;;;;5029631;28;20030;-56
2022/04/07 05:21:22;;;;;;;4.70;4.13;;;9.50;99.90;;;;;;5031074;28;20028;-56
2022/04/07 05:23:47;;;;;;;2.83;2.63;;;9.50;99.90;;;;;;5031046;28;20542;-58
2022/04/07 05:26:13;;;;;;;7.95;4.22;;;9.40;99.90;;;;;;5030857;28;20167;-57
2022/04/07 05:28:40;;;;;;;6.20;4.88;;;9.50;99.90;;;;;;5030904;28;20099;-58
2022/04/07 05:31:06;;;;;;;5.75;4.28;;;9.50;99.90;;;;;;5034073;28;20063;-58
2022/04/07 05:33:32;;;;;;;3.58;2.90;;;9.60;99.90;;;;;;5034649;28;20028;-58
2022/04/07 05:35:58;;;;;;;2.55;2.35;;;9.60;99.90;;;;;;5034351;28;20041;-58
2022/04/07 05:38:23;;;;;;;2.33;2.13;;;9.60;99.90;;;;;;5034660;28;20025;-59
2022/04/07 05:40:49;;;;;;;4.53;2.78;;;9.60;99.90;;;;;;5034518;28;20026;-58
2022/04/07 05:43:15;;;;;;;3.30;3.03;;;9.50;99.90;;;;;;5034202;28;20365;-57
2022/04/07 05:45:42;;;;;;;3.72;2.58;;;9.40;99.90;;;;;;5034385;28;20033;-57
2022/04/07 05:48:10;;;;;;;2.65;2.45;;;9.40;99.90;;;;;;5034211;28;20026;-54
2022/04/07 05:50:36;;;;;;;2.72;2.53;;;9.50;99.90;;;;;;5034486;28;20087;-58
2022/04/07 05:53:02;;;;;;;2.10;2.00;;;9.50;99.90;;;;;;5034075;28;20116;-58
2022/04/07 05:55:28;;;;;;;2.35;2.15;;;9.40;99.90;;;;;;5034058;28;20132;-59
2022/04/07 05:57:54;;;;;;;3.15;2.75;;;9.50;99.90;;;;;;5034065;28;20021;-58
2022/04/07 06:00:20;;;;;;;2.65;2.45;;;9.50;99.90;;;;;;5034094;28;20040;-57
2022/04/07 06:02:48;;;;;;;2.10;2.00;;;9.50;99.90;;;;;;5034054;28;20026;-57
2022/04/07 06:05:18;;;;;;;2.40;2.20;;;9.60;99.90;;;;;;5032615;28;20053;-58
2022/04/07 06:07:44;;;;;;;2.35;2.05;;;9.80;99.90;;;;;;5033914;28;20044;-57
2022/04/07 06:10:10;;;;;;;4.82;3.47;;;9.90;99.90;;;;;;5033822;28;20028;-58
2022/04/07 06:12:38;;;;;;;3.17;2.63;;;10.00;99.90;;;;;;5033680;28;20108;-57
2022/04/07 06:15:04;;;;;;;3.05;2.05;;;10.10;99.90;;;;;;5033482;28;20069;-57
2022/04/07 06:17:41;;;;;;;2.72;2.53;;;10.10;99.90;;;;;;5033863;28;20378;-59
2022/04/07 06:20:10;;;;;;;4.32;2.58;;;10.20;99.90;;;;;;5033704;28;20465;-58
2022/04/07 06:22:36;;;;;;;2.38;2.00;;;10.30;99.90;;;;;;5033897;28;20072;-58
2022/04/07 06:25:03;;;;;;;3.17;2.28;;;10.40;99.90;;;;;;5033394;28;20036;-58
2022/04/07 06:27:43;;;;;;;4.93;3.30;;;10.50;99.90;;;;;;5033514;28;20017;-59
2022/04/07 06:30:14;;;;;;;2.22;1.98;;;10.60;99.90;;;;;;5033436;28;20108;-58
2022/04/07 06:32:40;;;;;;;4.47;1.70;;;10.80;99.90;;;;;;5033548;28;20536;-58
2022/04/07 06:35:08;;;;;;;9.90;5.10;;;11.00;99.90;;;;;;5033522;28;20104;-58
2022/04/07 06:37:56;;;;;;;1.83;1.70;;;11.10;99.90;;;;;;5033274;28;20034;-58
2022/04/07 06:40:29;;;;;;;14.13;6.28;;;11.40;99.90;;;;;;5033299;28;20033;-58
2022/04/07 06:42:56;;;;;;;1.95;1.77;;;11.60;99.90;;;;;;5032666;28;20022;-59
2022/04/07 06:45:23;;;;;;;1.92;1.83;;;11.40;99.90;;;;;;5033340;28;20515;-58
2022/04/07 06:47:49;;;;;;;3.67;2.70;;;11.40;99.90;;;;;;5033327;28;20499;-59
2022/04/07 06:50:16;;;;;;;3.00;2.80;;;11.40;99.90;;;;;;5033091;28;20144;-59
2022/04/07 06:52:43;;;;;;;3.30;2.33;;;11.30;99.90;;;;;;5033243;28;20030;-59
2022/04/07 06:55:10;;;;;;;2.00;1.45;;;11.20;99.90;;;;;;5032958;28;20033;-58
2022/04/07 06:57:52;;;;;;;5.13;1.90;;;11.30;99.90;;;;;;5033078;28;20025;-58
2022/04/07 07:00:20;;;;;;;1.30;1.30;;;11.40;99.90;;;;;;5031613;28;20365;-57
2022/04/07 07:02:47;;;;;;;2.85;2.25;;;11.40;99.90;;;;;;5033091;28;20046;-58
2022/04/07 07:05:13;;;;;;;2.58;1.70;;;11.20;99.90;;;;;;5032665;28;20029;-58
2022/04/07 07:07:38;;;;;;;1.60;1.25;;;11.30;99.90;;;;;;5032997;28;20041;-56
2022/04/07 07:10:04;;;;;;;1.98;1.40;;;11.40;99.90;;;;;;5032550;28;20082;-57
2022/04/07 07:12:30;;;;;;;4.00;1.40;;;11.50;99.90;;;;;;5032799;28;20037;-58
2022/04/07 07:14:55;;;;;;;1.45;1.35;;;11.40;99.90;;;;;;5032281;28;20050;-59
2022/04/07 07:17:21;;;;;;;2.47;1.60;;;11.40;99.90;;;;;;5032690;28;20154;-56
2022/04/07 07:19:47;;;;;;;1.95;1.55;;;11.20;99.90;;;;;;5032614;28;20023;-59
2022/04/07 07:22:12;;;;;;;5.03;1.27;;;11.30;99.90;;;;;;5032430;28;20033;-57
2022/04/07 07:24:38;;;;;;;2.25;1.30;;;11.30;99.90;;;;;;5032622;28;20033;-57
2022/04/07 07:27:04;;;;;;;2.58;1.25;;;11.30;99.90;;;;;;5031061;28;20400;-56
2022/04/07 07:29:29;;;;;;;13.27;1.20;;;11.40;99.90;;;;;;5032543;28;20052;-58
2022/04/07 07:31:55;;;;;;;1.85;1.20;;;11.40;99.90;;;;;;5032208;28;20079;-59
2022/04/07 07:34:21;;;;;;;1.25;1.13;;;11.50;99.90;;;;;;5032373;28;20029;-59
2022/04/07 07:36:46;;;;;;;6.05;1.30;;;11.60;99.90;;;;;;5032402;28;20106;-58
2022/04/07 07:39:12;;;;;;;2.58;1.23;;;11.60;99.90;;;;;;5032080;28;20068;-56
2022/04/07 07:41:38;;;;;;;1.05;1.00;;;11.60;99.90;;;;;;5032205;28;20469;-57
2022/04/07 07:44:04;;;;;;;2.50;1.10;;;11.70;99.90;;;;;;5032063;28;20049;-59
2022/04/07 07:46:32;;;;;;;1.30;1.20;;;11.70;99.90;;;;;;5032117;28;20431;-57
2022/04/07 07:48:57;;;;;;;1.30;1.20;;;11.80;99.90;;;;;;5031980;28;20021;-58
2022/04/07 07:51:23;;;;;;;3.85;1.00;;;11.80;99.90;;;;;;5032104;28;20021;-59
2022/04/07 07:53:49;;;;;;;2.28;1.67;;;11.90;99.90;;;;;;5031211;28;20043;-58
2022/04/07 07:56:15;;;;;;;0.90;0.90;;;11.90;99.90;;;;;;5031772;28;20033;-59
2022/04/07 07:58:41;;;;;;;1.00;1.00;;;12.20;99.90;;;;;;5032130;28;20030;-58
2022/04/07 08:01:06;;;;;;;4.13;0.90;;;12.30;99.90;;;;;;5031647;28;20159;-58
2022/04/07 08:03:32;;;;;;;1.60;1.10;;;12.20;99.90;;;;;;5031786;28;20025;-57
2022/04/07 08:05:59;;;;;;;2.13;1.17;;;12.30;99.90;;;;;;5031804;28;20040;-59
2022/04/07 08:08:25;;;;;;;0.95;0.95;;;12.50;99.90;;;;;;5031665;28;20034;-58
2022/04/07 08:10:50;;;;;;;1.48;1.00;;;12.30;99.90;;;;;;5031767;28;20351;-58
2022/04/07 08:13:16;;;;;;;1.00;1.00;;;12.40;99.90;;;;;;5031613;28;20048;-55
2022/04/07 08:15:42;;;;;;;1.17;0.90;;;12.60;99.70;;;;;;5031478;28;20057;-57
2022/04/07 08:18:08;;;;;;;1.05;1.00;;;12.80;99.90;;;;;;5031502;28;20052;-58
2022/04/07 08:20:34;;;;;;;1.10;0.90;;;12.90;99.90;;;;;;5031687;28;20013;-59
2022/04/07 08:23:00;;;;;;;1.50;0.90;;;13.00;99.90;;;;;;5031344;28;20477;-56
2022/04/07 08:25:25;;;;;;;3.35;0.90;;;13.00;99.90;;;;;;5031730;28;20066;-58
2022/04/07 08:27:51;;;;;;;0.95;0.95;;;13.00;99.60;;;;;;5030193;28;20136;-59
2022/04/07 08:30:17;;;;;;;3.67;0.95;;;13.10;98.50;;;;;;5031210;28;20383;-59
2022/04/07 08:32:42;;;;;;;1.20;1.08;;;13.00;99.20;;;;;;5031548;28;20556;-58
2022/04/07 08:35:10;;;;;;;4.43;1.10;;;13.10;98.40;;;;;;5031371;28;20365;-58
2022/04/07 08:37:37;;;;;;;2.45;1.10;;;13.20;97.00;;;;;;5031377;28;20567;-57
2022/04/07 08:40:06;;;;;;;0.90;0.90;;;13.10;97.30;;;;;;5031237;28;20377;-59
2022/04/07 08:42:35;;;;;;;0.75;0.75;;;13.30;97.60;;;;;;5031264;28;20350;-59
2022/04/07 08:45:01;;;;;;;1.90;0.73;;;13.20;98.90;;;;;;5031356;28;20023;-59
2022/04/07 08:47:28;;;;;;;3.17;0.90;;;13.30;97.70;;;;;;5031364;28;20072;-57
2022/04/07 08:49:54;;;;;;;0.90;0.90;;;13.20;98.20;;;;;;5031199;28;20032;-58
2022/04/07 08:52:20;;;;;;;0.98;0.90;;;13.40;97.70;;;;;;5031178;28;20022;-59
2022/04/07 08:54:47;;;;;;;1.65;1.25;;;13.40;96.80;;;;;;5029802;28;20087;-58
2022/04/07 08:57:14;;;;;;;5.38;1.10;;;13.60;98.00;;;;;;5031054;28;20440;-59
2022/04/07 08:59:40;;;;;;;0.77;0.77;;;13.50;96.70;;;;;;5029827;28;20029;-59
2022/04/07 09:02:07;;;;;;;0.75;0.75;;;13.80;98.60;;;;;;5031052;28;20524;-59
2022/04/07 09:04:38;;;;;;;1.00;1.00;;;13.60;96.60;;;;;;5032370;28;20104;-59
2022/04/07 09:07:04;;;;;;;0.82;0.82;;;13.80;96.70;;;;;;5034981;28;20037;-59
2022/04/07 09:09:34;;;;;;;1.40;0.82;;;13.80;96.30;;;;;;5035294;28;20049;-59
2022/04/07 09:12:00;;;;;;;0.90;0.90;;;13.90;95.70;;;;;;5034890;28;20467;-57
2022/04/07 09:14:31;;;;;;;0.70;0.70;;;14.00;97.20;;;;;;5034871;28;20129;-57
2022/04/07 09:16:56;;;;;;;1.20;0.70;;;14.00;96.40;;;;;;5034898;28;20029;-58
2022/04/07 09:19:23;;;;;;;1.13;1.13;;;14.00;95.50;;;;;;5034945;28;20097;-59
2022/04/07 09:22:08;;;;;;;0.60;0.60;;;14.00;96.20;;;;;;5035056;28;20026;-59
2022/04/07 09:24:35;;;;;;;0.80;0.80;;;14.10;96.10;;;;;;5034748;28;20421;-59
2022/04/07 09:27:08;;;;;;;0.70;0.70;;;14.30;96.20;;;;;;5034541;28;20033;-59
2022/04/07 09:29:45;;;;;;;0.70;0.70;;;14.40;97.00;;;;;;5034700;28;20049;-58
2022/04/07 09:32:24;;;;;;;2.15;1.00;;;14.60;96.60;;;;;;5034540;28;20728;-58
2022/04/07 09:35:00;;;;;;;3.40;0.80;;;14.50;95.50;;;;;;5034513;28;20461;-60
2022/04/07 09:37:28;;;;;;;1.75;1.05;;;14.50;95.50;;;;;;5034585;28;20024;-59
2022/04/07 09:40:09;;;;;;;1.98;0.90;;;14.60;94.80;;;;;;5033812;28;20030;-59
2022/04/07 09:42:35;;;;;;;0.73;0.73;;;14.50;94.50;;;;;;5038121;28;20032;-59
2022/04/07 09:45:12;;;;;;;0.88;0.88;;;15.10;97.60;;;;;;5053993;28;20434;-59
2022/04/07 09:47:41;;;;;;;1.23;0.80;;;15.20;95.80;;;;;;5053017;28;20029;-60
2022/04/07 09:50:22;;;;;;;0.63;0.63;;;15.30;95.00;;;;;;5054092;28;20040;-59
2022/04/07 09:52:55;;;;;;;0.98;0.82;;;15.00;94.50;;;;;;5054307;28;20021;-59
2022/04/07 09:55:44;;;;;;;3.38;0.95;;;15.10;94.80;;;;;;5054222;28;20361;-60
2022/04/07 09:58:12;;;;;;;1.00;1.00;;;14.90;95.30;;;;;;5054138;28;20029;-60
2022/04/07 10:00:38;;;;;;;0.80;0.80;;;14.90;93.90;;;;;;5053983;28;20017;-58
2022/04/07 10:03:05;;;;;;;1.05;0.98;;;14.90;94.00;;;;;;5053788;28;20028;-59
2022/04/07 10:05:31;;;;;;;0.90;0.90;;;15.10;93.80;;;;;;5054042;28;20116;-57
2022/04/07 10:07:58;;;;;;;1.17;0.73;;;15.50;94.40;;;;;;5053717;28;20036;-60
2022/04/07 10:10:26;;;;;;;0.88;0.80;;;15.50;93.10;;;;;;5053898;28;20052;-58
2022/04/07 10:12:52;;;;;;;1.52;0.88;;;15.80;95.30;;;;;;5053795;28;20033;-58
2022/04/07 10:15:18;;;;;;;0.90;0.90;;;16.30;92.60;;;;;;5053419;28;20048;-59
2022/04/07 10:17:45;;;;;;;1.50;1.10;;;16.30;92.90;;;;;;5052765;28;20029;-60
2022/04/07 10:20:35;;;;;;;1.17;1.00;;;16.30;91.30;;;;;;5053188;28;20096;-59
2022/04/07 10:23:09;;;;;;;1.35;1.10;;;15.90;90.60;;;;;;5049239;28;20072;-59
2022/04/07 10:25:39;;;;;;;0.95;0.90;;;16.10;90.30;;;;;;5053486;28;20056;-57
2022/04/07 10:28:07;;;;;;;0.85;0.85;;;16.00;89.70;;;;;;5052160;28;20461;-59
2022/04/07 10:30:48;;;;;;;0.70;0.70;;;16.10;90.10;;;;;;5053523;28;20021;-59
2022/04/07 10:33:41;;;;;;;1.05;0.80;;;16.40;90.50;;;;;;5052942;28;20024;-58
2022/04/07 10:36:20;;;;;;;0.60;0.60;;;16.10;90.40;;;;;;5053179;28;20028;-59
2022/04/07 10:38:48;;;;;;;1.00;0.90;;;16.50;90.10;;;;;;5053276;28;20445;-59
2022/04/07 10:41:35;;;;;;;1.00;0.88;;;16.30;85.90;;;;;;5053303;28;20067;-58
2022/04/07 10:44:20;;;;;;;1.30;1.08;;;16.00;88.30;;;;;;5052156;28;20021;-59
2022/04/07 10:46:46;;;;;;;0.70;0.70;;;16.60;91.50;;;;;;5052085;28;20032;-58
2022/04/07 10:49:19;;;;;;;2.80;0.90;;;16.80;88.10;;;;;;5051658;28;20041;-58
2022/04/07 10:51:56;;;;;;;1.55;0.82;;;17.00;86.40;;;;;;5051996;28;20027;-57
2022/04/07 10:54:24;;;;;;;0.63;0.63;;;17.20;84.30;;;;;;5053153;28;20021;-53
2022/04/07 10:56:56;;;;;;;1.35;1.25;;;17.00;82.00;;;;;;5052104;28;20086;-59
2022/04/07 10:59:37;;;;;;;2.85;2.40;;;17.00;84.50;;;;;;5052149;28;20071;-55
2022/04/07 11:02:12;;;;;;;1.23;1.13;;;17.10;77.90;;;;;;5052071;28;20036;-57
2022/04/07 11:05:00;;;;;;;1.00;0.63;;;17.60;80.50;;;;;;5052885;28;20025;-58
2022/04/07 11:07:26;;;;;;;0.98;0.80;;;18.20;85.70;;;;;;5052927;28;20032;-59
2022/04/07 11:09:58;;;;;;;0.70;0.70;;;18.40;77.70;;;;;;5052883;28;20028;-59
2022/04/07 11:12:32;;;;;;;1.35;0.80;;;18.30;77.60;;;;;;5052510;28;20029;-59
2022/04/07 11:15:03;;;;;;;;;;;18.30;75.30;;;;;;5052584;28;20037;-59
2022/04/07 11:17:53;;;;;;;0.60;0.60;;;18.40;72.50;;;;;;5051310;28;20383;-58
2022/04/07 11:20:21;;;;;;;3.55;0.95;;;18.70;68.10;;;;;;5051439;28;20104;-56
2022/04/07 11:22:56;;;;;;;0.70;0.65;;;18.30;67.50;;;;;;5051410;28;20043;-59
2022/04/07 11:25:28;;;;;;;0.95;0.85;;;19.30;68.00;;;;;;5051116;28;20452;-56
2022/04/07 11:28:22;;;;;;;1.13;0.90;;;19.00;67.20;;;;;;5051650;28;20036;-56
2022/04/07 11:30:47;;;;;;;;;;;20.10;66.60;;;;;;5052558;28;20082;-58
2022/04/07 11:33:20;;;;;;;1.05;0.68;;;20.60;64.20;;;;;;5052159;28;19906;-60
2022/04/07 11:36:00;;;;;;;1.33;0.73;;;20.90;62.60;;;;;;5052256;28;20399;-59
2022/04/07 11:38:36;;;;;;;0.82;0.75;;;20.90;60.90;;;;;;5052093;28;20419;-59
2022/04/07 11:41:07;;;;;;;0.60;0.60;;;21.60;56.00;;;;;;5052133;28;20031;-59
2022/04/07 11:43:37;;;;;;;1.92;0.93;;;22.10;52.20;;;;;;5052056;28;20032;-59
2022/04/07 11:46:03;;;;;;;1.80;0.70;;;23.90;54.90;;;;;;5051862;28;20036;-59
2022/04/07 11:48:34;;;;;;;1.40;0.50;;;23.70;50.60;;;;;;5052091;28;20029;-60
2022/04/07 11:51:08;;;;;;;3.70;0.75;;;24.10;45.90;;;;;;5052020;28;20106;-57
2022/04/07 11:53:33;;;;;;;;;;;22.90;49.40;;;;;;5052571;28;20464;-59
2022/04/07 11:56:12;;;;;;;0.80;0.60;;;22.00;46.40;;;;;;5051839;28;19955;-58
2022/04/07 11:58:38;;;;;;;2.67;0.70;;;21.00;49.00;;;;;;5051824;28;20013;-59
2022/04/07 12:01:13;;;;;;;3.80;1.23;;;21.50;49.70;;;;;;5051669;28;20021;-57
2022/04/07 12:03:39;;;;;;;0.52;0.50;;;21.00;47.50;;;;;;5051850;28;20468;-58
2022/04/07 12:06:05;;;;;;;7.47;0.90;;;20.90;50.90;;;;;;5051418;28;20070;-59
2022/04/07 12:08:31;;;;;;;0.88;0.60;;;21.60;48.40;;;;;;5051621;28;20055;-59
2022/04/07 12:10:58;;;;;;;2.38;1.40;;;22.30;46.00;;;;;;5051419;28;20036;-60
2022/04/07 12:13:24;;;;;;;4.75;2.55;;;23.00;44.80;;;;;;5050787;28;20120;-60
2022/04/07 12:15:50;;;;;;;3.97;1.38;;;21.90;47.40;;;;;;5051555;28;20079;-60
2022/04/07 12:18:27;;;;;;;1.48;0.73;;;21.50;47.20;;;;;;5051367;28;20060;-59
2022/04/07 12:21:02;;;;;;;1.95;0.70;;;23.10;45.90;;;;;;5050295;28;20036;-60
2022/04/07 12:23:28;;;;;;;4.18;0.65;;;23.50;44.40;;;;;;5051447;28;20070;-59
2022/04/07 12:26:01;;;;;;;4.72;0.65;;;23.30;46.10;;;;;;5051456;28;20059;-59
2022/04/07 12:28:32;;;;;;;;;;;23.10;44.40;;;;;;5051922;28;20033;-59
2022/04/07 12:30:57;;;;;;;1.95;0.70;;;22.70;44.10;;;;;;5051478;28;19904;-60
2022/04/07 12:33:41;;;;;;;2.42;0.73;;;24.30;43.70;;;;;;5051391;28;20032;-59
2022/04/07 12:36:08;;;;;;;0.98;0.55;;;22.80;43.80;;;;;;5051035;28;20022;-60
2022/04/07 12:38:34;;;;;;;2.65;0.50;;;22.80;45.30;;;;;;5051376;28;20017;-59
2022/04/07 12:41:16;;;;;;;1.27;0.60;;;23.90;43.30;;;;;;5050852;28;20029;-59
2022/04/07 12:43:50;;;;;;;5.20;0.82;;;24.00;41.80;;;;;;5051265;28;20025;-59
2022/04/07 12:46:17;;;;;;;1.38;0.80;;;22.80;42.00;;;;;;5051097;28;20383;-60
2022/04/07 12:49:06;;;;;;;1.63;0.50;;;22.40;43.60;;;;;;5051528;28;20415;-59
2022/04/07 12:51:36;;;;;;;0.63;0.63;;;23.60;43.30;;;;;;5051350;28;20032;-60
2022/04/07 12:54:13;;;;;;;0.90;0.57;;;23.80;44.80;;;;;;5051097;28;20371;-59
2022/04/07 12:56:42;;;;;;;2.08;1.05;;;22.90;42.30;;;;;;5051348;28;20033;-59